^^
Datos históricos de la estación: Murcia-Puente Tocinos
Diario Informe para Febrero 5, 2019 Unidades:  Métrico    Inglés   Ambas
Diario Semanal Mensual Anual Configurable
  Máximo: Mínimo: Media:
Temperatura: 21.5 °C 5.7 °C 13.1 °C
Punto de rocio: 5.7 °C -2.8 °C 1.4 °C
Humedad: 68% 30% 47%
Velocidad viento: 13.0km/h 0.0km/h 6.8km/h
Racha viento: 25.9km/h - -
Viento- - SW
Presión: 1027.2 hPa 1022.9 hPa -
Precipitación: 0.0 mm    
Historical Graphs
 
 
Tabla de datos para Febrero 5, 2019
Hora Temperatura Punto de rocio Presión Viento Velocidad viento Racha viento Humedad Intensidad lluvia(por hora) Nubes
00:00 9.1 °C 3.5 °C 1026.4 hPa SSW 4.8 km/h 9.7 km/h 68% 0.0 mm CLR
00:05 9.0 °C 3.4 °C 1026.4 hPa SSW 5.8 km/h 9.5 km/h 68% 0.0 mm CLR
00:10 8.9 °C 3.3 °C 1026.4 hPa SSW 6.4 km/h 9.3 km/h 68% 0.0 mm CLR
00:15 8.8 °C 3.2 °C 1026.4 hPa SSW 6.4 km/h 11.1 km/h 68% 0.0 mm CLR
00:20 8.8 °C 3.0 °C 1026.4 hPa SSW 8.0 km/h 11.3 km/h 67% 0.0 mm CLR
00:25 8.7 °C 2.9 °C 1026.4 hPa SSW 6.9 km/h 9.3 km/h 67% 0.0 mm CLR
00:30 8.7 °C 3.1 °C 1026.4 hPa SSW 4.8 km/h 8.0 km/h 68% 0.0 mm CLR
00:35 8.7 °C 3.1 °C 1026.3 hPa SSW 4.8 km/h 8.0 km/h 68% 0.0 mm CLR
00:40 8.6 °C 3.0 °C 1026.3 hPa SSW 4.8 km/h 9.7 km/h 68% 0.0 mm CLR
00:45 8.5 °C 2.7 °C 1026.3 hPa SW 5.0 km/h 11.1 km/h 67% 0.0 mm CLR
00:50 8.4 °C 2.6 °C 1026.3 hPa SW 6.4 km/h 7.4 km/h 67% 0.0 mm CLR
00:55 8.4 °C 2.6 °C 1026.3 hPa SW 6.4 km/h 7.4 km/h 67% 0.0 mm CLR
01:00 8.4 °C 2.4 °C 1026.3 hPa SW 4.8 km/h 9.7 km/h 66% 0.0 mm CLR
01:05 8.4 °C 2.4 °C 1026.2 hPa SW 4.8 km/h 9.7 km/h 66% 0.0 mm CLR
01:10 8.3 °C 2.5 °C 1026.2 hPa SSW 5.0 km/h 7.4 km/h 67% 0.0 mm CLR
01:15 8.3 °C 2.3 °C 1026.2 hPa South 5.0 km/h 7.4 km/h 66% 0.0 mm CLR
01:20 8.3 °C 2.3 °C 1026.1 hPa SSW 4.8 km/h 11.3 km/h 66% 0.0 mm CLR
01:25 8.3 °C 2.3 °C 1026.1 hPa SW 4.8 km/h 14.5 km/h 66% 0.0 mm CLR
01:30 8.2 °C 2.2 °C 1026.1 hPa SW 8.0 km/h 9.7 km/h 66% 0.0 mm CLR
01:35 8.2 °C 2.2 °C 1026.1 hPa SW 8.0 km/h 9.7 km/h 66% 0.0 mm CLR
01:40 8.2 °C 2.2 °C 1026.1 hPa WSW 4.8 km/h 8.0 km/h 66% 0.0 mm CLR
01:45 8.2 °C 2.2 °C 1026.1 hPa WSW 5.8 km/h 5.6 km/h 66% 0.0 mm CLR
01:50 8.2 °C 2.0 °C 1026.0 hPa SSW 3.2 km/h 7.4 km/h 65% 0.0 mm CLR
01:55 8.3 °C 2.1 °C 1026.0 hPa South 3.2 km/h 7.4 km/h 65% 0.0 mm CLR
02:00 8.3 °C 1.9 °C 1026.0 hPa South 3.2 km/h 8.0 km/h 64% 0.0 mm CLR
02:05 8.3 °C 1.9 °C 1025.9 hPa South 4.7 km/h 5.6 km/h 64% 0.0 mm CLR
02:10 8.2 °C 1.8 °C 1025.9 hPa South 3.2 km/h 5.6 km/h 64% 0.0 mm CLR
02:15 8.1 °C 1.7 °C 1025.9 hPa SSW 3.2 km/h 9.7 km/h 64% 0.0 mm CLR
02:20 8.1 °C 1.7 °C 1025.9 hPa SW 4.8 km/h 11.3 km/h 64% 0.0 mm CLR
02:25 8.0 °C 1.6 °C 1025.9 hPa SW 4.8 km/h 8.0 km/h 64% 0.0 mm CLR
02:30 7.9 °C 1.5 °C 1025.9 hPa SW 4.8 km/h 9.7 km/h 64% 0.0 mm CLR
02:35 7.8 °C 1.6 °C 1025.8 hPa SSW 5.0 km/h 9.3 km/h 65% 0.0 mm CLR
02:40 7.8 °C 1.6 °C 1025.8 hPa SSW 8.0 km/h 11.3 km/h 65% 0.0 mm CLR
02:45 7.7 °C 1.6 °C 1025.8 hPa SSW 8.0 km/h 11.3 km/h 65% 0.0 mm CLR
02:50 7.7 °C 1.6 °C 1025.7 hPa SSW 6.9 km/h 11.1 km/h 65% 0.0 mm CLR
02:55 7.7 °C 1.3 °C 1025.7 hPa SSW 6.9 km/h 11.1 km/h 64% 0.0 mm CLR
03:00 7.7 °C 1.3 °C 1025.7 hPa SSW 8.0 km/h 11.3 km/h 64% 0.0 mm CLR
03:05 7.8 °C 1.2 °C 1025.8 hPa South 8.0 km/h 9.7 km/h 63% 0.0 mm CLR
03:10 7.9 °C 1.3 °C 1025.8 hPa South 6.4 km/h 9.3 km/h 63% 0.0 mm CLR
03:15 7.8 °C 1.2 °C 1025.8 hPa SSE 6.4 km/h 9.3 km/h 63% 0.0 mm CLR
03:20 7.7 °C 1.1 °C 1025.8 hPa South 8.0 km/h 9.7 km/h 63% 0.0 mm CLR
03:25 7.7 °C 1.1 °C 1025.8 hPa SSW 8.0 km/h 11.3 km/h 63% 0.0 mm CLR
03:30 7.7 °C 0.9 °C 1025.8 hPa SSW 8.0 km/h 11.3 km/h 62% 0.0 mm CLR
03:35 7.7 °C 0.9 °C 1025.8 hPa SW 8.0 km/h 9.7 km/h 62% 0.0 mm CLR
03:40 7.7 °C 0.9 °C 1025.8 hPa SW 6.4 km/h 11.1 km/h 62% 0.0 mm CLR
03:45 7.7 °C 0.9 °C 1025.8 hPa WSW 6.4 km/h 7.4 km/h 62% 0.0 mm CLR
03:50 7.7 °C 0.7 °C 1025.7 hPa SW 4.8 km/h 9.7 km/h 61% 0.0 mm CLR
03:55 7.7 °C 0.9 °C 1025.7 hPa WSW 5.0 km/h   62% 0.0 mm CLR
04:00 7.7 °C 0.9 °C 1025.7 hPa WSW 3.2 km/h   62% 0.0 mm CLR
04:05 7.6 °C 0.8 °C 1025.6 hPa WSW 3.2 km/h   62% 0.0 mm CLR
04:10 7.6 °C 1.0 °C 1025.6 hPa Calm     63% 0.0 mm CLR
04:15 7.4 °C 0.8 °C 1025.6 hPa Calm     63% 0.0 mm CLR
04:20 7.3 °C 0.7 °C 1025.5 hPa Calm   4.8 km/h 63% 0.0 mm CLR
04:25 7.2 °C 0.8 °C 1025.5 hPa Calm   7.4 km/h 64% 0.0 mm CLR
04:30 7.2 °C 0.8 °C 1025.5 hPa WSW 3.2 km/h 8.0 km/h 64% 0.0 mm CLR
04:35 7.2 °C 0.6 °C 1025.5 hPa WSW 3.2 km/h   63% 0.0 mm CLR
04:40 7.2 °C 0.6 °C 1025.5 hPa WSW 3.2 km/h   63% 0.0 mm CLR
04:45 7.2 °C 0.6 °C 1025.5 hPa WSW 3.2 km/h 5.6 km/h 63% 0.0 mm CLR
04:50 7.3 °C 0.3 °C 1025.4 hPa WSW 2.9 km/h 7.4 km/h 61% 0.0 mm CLR
04:55 7.4 °C -0.1 °C 1025.4 hPa WSW 3.2 km/h 9.7 km/h 59% 0.0 mm CLR
05:00 7.6 °C 0.3 °C 1025.4 hPa SW 8.0 km/h 9.7 km/h 60% 0.0 mm CLR
05:05 7.6 °C 0.6 °C 1025.3 hPa SSW 6.9 km/h 7.4 km/h 61% 0.0 mm CLR
05:10 7.5 °C 0.4 °C 1025.3 hPa SSW 5.8 km/h 9.3 km/h 61% 0.0 mm CLR
05:15 7.4 °C 0.4 °C 1025.3 hPa SSW 5.8 km/h 7.4 km/h 61% 0.0 mm CLR
05:20 7.4 °C 0.1 °C 1025.5 hPa SSE 5.8 km/h 7.4 km/h 60% 0.0 mm CLR
05:25 7.4 °C 0.1 °C 1025.5 hPa ESE 5.8 km/h 8.7 km/h 60% 0.0 mm CLR
05:30 6.7 °C 0.2 °C 1025.5 hPa SE 3.2 km/h 8.0 km/h 63% 0.0 mm CLR
05:35 6.5 °C -0.1 °C 1025.6 hPa SW 3.9 km/h 9.3 km/h 63% 0.0 mm CLR
05:40 6.6 °C 0.1 °C 1025.6 hPa SSW 5.8 km/h 3.7 km/h 63% 0.0 mm CLR
05:45 6.4 °C 0.1 °C 1025.6 hPa East 5.8 km/h 7.4 km/h 64% 0.0 mm CLR
05:50 5.8 °C -0.1 °C 1025.8 hPa SSE 4.7 km/h 8.4 km/h 66% 0.0 mm CLR
05:55 5.7 °C -0.6 °C 1025.8 hPa SSW 4.7 km/h 7.4 km/h 64% 0.0 mm CLR
06:00 6.0 °C -0.3 °C 1025.8 hPa South 4.8 km/h 9.7 km/h 64% 0.0 mm CLR
06:05 6.3 °C -0.4 °C 1025.7 hPa South 4.8 km/h 12.9 km/h 62% 0.0 mm CLR
06:10 6.3 °C -0.4 °C 1025.7 hPa SSE 8.4 km/h 7.6 km/h 62% 0.0 mm CLR
06:15 6.3 °C -0.4 °C 1025.7 hPa South 8.4 km/h 7.4 km/h 62% 0.0 mm CLR
06:20 6.4 °C -0.8 °C 1025.8 hPa South 5.0 km/h 9.3 km/h 60% 0.0 mm CLR
06:25 6.6 °C -1.1 °C 1025.8 hPa SSW 5.0 km/h 9.3 km/h 58% 0.0 mm CLR
06:30 6.8 °C -1.1 °C 1025.8 hPa SSW 8.0 km/h 9.7 km/h 57% 0.0 mm CLR
06:35 7.2 °C -1.0 °C 1025.8 hPa SSE 6.4 km/h 7.4 km/h 56% 0.0 mm CLR
06:40 7.1 °C -0.8 °C 1025.8 hPa South 5.8 km/h 5.8 km/h 57% 0.0 mm CLR
06:45 7.0 °C -0.9 °C 1025.8 hPa South 5.8 km/h 3.9 km/h 57% 0.0 mm CLR
06:50 6.9 °C -0.8 °C 1025.8 hPa South 3.2 km/h 4.8 km/h 58% 0.0 mm CLR
06:55 6.9 °C -1.3 °C 1025.8 hPa SW 3.9 km/h 8.4 km/h 56% 0.0 mm CLR
07:00 7.3 °C -1.7 °C 1025.8 hPa SSW 3.2 km/h 11.3 km/h 53% 0.0 mm CLR
07:05 7.6 °C -1.7 °C 1025.8 hPa SSW 4.7 km/h 9.3 km/h 52% 0.0 mm CLR
07:10 7.7 °C -1.8 °C 1025.8 hPa SW 6.9 km/h 9.3 km/h 51% 0.0 mm CLR
07:15 7.9 °C -1.9 °C 1025.8 hPa SSW 6.9 km/h 11.1 km/h 50% 0.0 mm CLR
07:20 8.0 °C -1.8 °C 1025.9 hPa SW 6.9 km/h 9.3 km/h 50% 0.0 mm CLR
07:25 8.1 °C -2.0 °C 1025.9 hPa SW 8.0 km/h 9.7 km/h 49% 0.0 mm CLR
07:30 8.1 °C -2.0 °C 1025.9 hPa South 6.4 km/h 7.4 km/h 49% 0.0 mm CLR
07:35 8.2 °C -2.2 °C 1025.9 hPa SSW 6.4 km/h 7.4 km/h 48% 0.0 mm CLR
07:40 8.2 °C -2.2 °C 1025.9 hPa SSW 4.8 km/h 9.7 km/h 48% 0.0 mm CLR
07:45 8.2 °C -2.2 °C 1025.9 hPa SW 5.8 km/h 4.7 km/h 48% 0.0 mm CLR
07:50 8.2 °C -1.9 °C 1026.0 hPa SW 3.2 km/h 4.8 km/h 49% 0.0 mm CLR
07:55 8.1 °C -2.0 °C 1026.0 hPa SW 3.2 km/h 8.0 km/h 49% 0.0 mm CLR
08:00 8.1 °C -2.0 °C 1026.0 hPa SW 3.2 km/h 8.0 km/h 49% 0.0 mm CLR
08:05 7.8 °C -2.0 °C 1026.1 hPa WSW 3.2 km/h 9.5 km/h 50% 0.0 mm CLR
08:10 7.7 °C -2.1 °C 1026.1 hPa SW 6.4 km/h 9.3 km/h 50% 0.0 mm CLR
08:15 7.7 °C -2.1 °C 1026.1 hPa SSW 6.4 km/h 9.3 km/h 50% 0.0 mm CLR
08:20 7.7 °C -2.3 °C 1026.3 hPa SSW 6.9 km/h 9.3 km/h 49% 0.0 mm CLR
08:25 7.8 °C -2.2 °C 1026.3 hPa SSW 8.0 km/h 9.7 km/h 49% 0.0 mm CLR
08:30 7.9 °C -2.4 °C 1026.3 hPa SSW 8.0 km/h 11.3 km/h 48% 0.0 mm CLR
08:35 8.1 °C -2.3 °C 1026.4 hPa SSW 6.9 km/h 11.1 km/h 48% 0.0 mm CLR
08:40 8.3 °C -2.7 °C 1026.4 hPa SW 6.9 km/h 11.1 km/h 46% 0.0 mm CLR
08:45 8.4 °C -2.6 °C 1026.4 hPa SW 6.9 km/h 9.3 km/h 46% 0.0 mm CLR
08:50 8.6 °C -2.7 °C 1026.5 hPa SW 8.0 km/h 9.7 km/h 45% 0.0 mm CLR
08:55 8.8 °C -2.8 °C 1026.5 hPa WSW 6.4 km/h 9.3 km/h 44% 0.0 mm CLR
09:00 8.9 °C -2.7 °C 1026.5 hPa WSW 8.0 km/h 9.7 km/h 44% 0.0 mm CLR
09:05 9.1 °C -2.8 °C 1026.7 hPa WSW 6.4 km/h 11.1 km/h 43% 0.0 mm CLR
09:10 9.3 °C -2.7 °C 1026.7 hPa SSW 6.9 km/h 7.4 km/h 43% 0.0 mm CLR
09:15 9.4 °C -2.6 °C 1026.7 hPa SW 6.9 km/h 9.3 km/h 43% 0.0 mm CLR
09:20 9.6 °C -2.7 °C 1026.7 hPa WSW 6.4 km/h 9.3 km/h 42% 0.0 mm CLR
09:25 9.8 °C -2.5 °C 1026.7 hPa WSW 6.4 km/h 10.0 km/h 42% 0.0 mm CLR
09:30 10.1 °C -2.6 °C 1026.7 hPa WSW 8.0 km/h 14.5 km/h 41% 0.0 mm CLR
09:35 10.2 °C -2.5 °C 1026.8 hPa West 6.9 km/h 11.1 km/h 41% 0.0 mm CLR
09:40 10.3 °C -2.7 °C 1026.8 hPa WSW 8.0 km/h 14.5 km/h 40% 0.0 mm CLR
09:45 10.4 °C -2.3 °C 1026.8 hPa SSE 6.9 km/h 7.4 km/h 41% 0.0 mm CLR
09:50 10.6 °C -2.4 °C 1026.9 hPa WSW 6.4 km/h 11.1 km/h 40% 0.0 mm CLR
09:55 10.8 °C -0.6 °C 1026.9 hPa SW 8.0 km/h 11.3 km/h 45% 0.0 mm CLR
10:00 11.0 °C 0.1 °C 1026.9 hPa South 3.2 km/h 9.7 km/h 47% 0.0 mm CLR
10:05 11.1 °C -0.7 °C 1027.1 hPa SSW 4.7 km/h 9.3 km/h 44% 0.0 mm CLR
10:10 11.2 °C -1.9 °C 1027.1 hPa SSW 3.2 km/h 9.7 km/h 40% 0.0 mm CLR
10:15 11.4 °C -2.1 °C 1027.1 hPa South 3.9 km/h 9.3 km/h 39% 0.0 mm CLR
10:20 11.7 °C -1.1 °C 1027.1 hPa SSE 5.0 km/h 9.3 km/h 41% 0.0 mm CLR
10:25 11.8 °C -0.7 °C 1027.1 hPa South 5.0 km/h 9.3 km/h 42% 0.0 mm CLR
10:30 11.9 °C -2.0 °C 1027.1 hPa SSW 6.9 km/h 11.9 km/h 38% 0.0 mm CLR
10:35 11.9 °C -1.6 °C 1027.1 hPa South 6.9 km/h 9.3 km/h 39% 0.0 mm CLR
10:40 12.0 °C -1.6 °C 1027.1 hPa SSW 8.0 km/h 12.9 km/h 39% 0.0 mm CLR
10:45 12.1 °C -1.4 °C 1027.1 hPa South 8.4 km/h 11.1 km/h 39% 0.0 mm CLR
10:50 12.3 °C -1.3 °C 1027.2 hPa SSW 7.6 km/h 13.0 km/h 39% 0.0 mm CLR
10:55 12.5 °C -1.4 °C 1027.2 hPa SSW 7.6 km/h 11.1 km/h 38% 0.0 mm CLR
11:00 12.7 °C -1.3 °C 1027.2 hPa SSW 8.0 km/h 12.9 km/h 38% 0.0 mm CLR
11:05 13.0 °C -1.4 °C 1027.1 hPa SSW 7.6 km/h 14.8 km/h 37% 0.0 mm CLR
11:10 13.3 °C -1.1 °C 1027.1 hPa SSW 8.4 km/h 5.6 km/h 37% 0.0 mm CLR
11:15 13.6 °C -1.2 °C 1027.1 hPa South 8.4 km/h 13.0 km/h 36% 0.0 mm CLR
11:20 13.9 °C -1.3 °C 1027.0 hPa South 7.6 km/h 11.9 km/h 35% 0.0 mm CLR
11:25 14.2 °C -1.4 °C 1027.0 hPa SSW 7.6 km/h 14.8 km/h 34% 0.0 mm CLR
11:30 14.4 °C -1.7 °C 1027.0 hPa WSW 8.0 km/h 19.3 km/h 33% 0.0 mm CLR
11:35 14.6 °C -1.5 °C 1026.9 hPa West 7.6 km/h 13.0 km/h 33% 0.0 mm CLR
11:40 14.8 °C -1.3 °C 1026.9 hPa SW 11.3 km/h 16.1 km/h 33% 0.0 mm CLR
11:45 15.0 °C -1.6 °C 1026.9 hPa SW 11.3 km/h 16.1 km/h 32% 0.0 mm CLR
11:50 15.2 °C -1.4 °C 1026.8 hPa WSW 8.7 km/h 11.1 km/h 32% 0.0 mm CLR
11:55 15.4 °C -1.2 °C 1026.8 hPa SW 9.7 km/h 11.3 km/h 32% 0.0 mm CLR
12:00 15.6 °C -1.1 °C 1026.8 hPa SW 8.0 km/h 12.9 km/h 32% 0.0 mm CLR
12:05 15.8 °C -0.9 °C 1026.8 hPa South 7.6 km/h 13.0 km/h 32% 0.0 mm CLR
12:10 16.0 °C -0.7 °C 1026.8 hPa WSW 7.6 km/h 16.7 km/h 32% 0.0 mm CLR
12:15 16.1 °C -0.6 °C 1026.8 hPa SSE 7.6 km/h 13.0 km/h 32% 0.0 mm CLR
12:20 16.3 °C -0.9 °C 1026.5 hPa WSW 10.3 km/h 14.8 km/h 31% 0.0 mm CLR
12:25 16.2 °C -0.9 °C 1026.5 hPa SW 10.3 km/h 18.5 km/h 31% 0.0 mm CLR
12:30 16.4 °C -0.8 °C 1026.5 hPa WSW 12.2 km/h 14.8 km/h 31% 0.0 mm CLR
12:35 16.4 °C -0.8 °C 1026.1 hPa SW 12.2 km/h 16.7 km/h 31% 0.0 mm CLR
12:40 16.7 °C -0.6 °C 1026.1 hPa SW 10.3 km/h 14.8 km/h 31% 0.0 mm CLR
12:45 16.8 °C -0.4 °C 1026.1 hPa WSW 10.3 km/h 18.5 km/h 31% 0.0 mm CLR
12:50 17.0 °C -0.3 °C 1025.9 hPa WSW 9.7 km/h 17.7 km/h 31% 0.0 mm CLR
12:55 17.2 °C -0.1 °C 1025.9 hPa SW 10.0 km/h 9.5 km/h 31% 0.0 mm CLR
13:00 17.4 °C 0.1 °C 1025.9 hPa SW 9.7 km/h 16.1 km/h 31% 0.0 mm CLR
13:05 17.7 °C 0.3 °C 1025.7 hPa SW 9.5 km/h 16.7 km/h 31% 0.0 mm CLR
13:10 18.0 °C 0.6 °C 1025.7 hPa South 9.5 km/h 13.0 km/h 31% 0.0 mm CLR
13:15 18.2 °C 0.8 °C 1025.7 hPa WSW 9.5 km/h 14.8 km/h 31% 0.0 mm CLR
13:20 18.4 °C 0.9 °C 1025.4 hPa WSW 10.0 km/h 24.1 km/h 31% 0.0 mm CLR
13:25 18.5 °C 1.1 °C 1025.4 hPa WSW 10.0 km/h 18.5 km/h 31% 0.0 mm CLR
13:30 18.7 °C 1.7 °C 1025.4 hPa WNW 13.0 km/h 18.5 km/h 32% 0.0 mm CLR
13:35 18.7 °C 1.2 °C 1025.3 hPa SW 13.0 km/h 20.4 km/h 31% 0.0 mm CLR
13:40 18.9 °C 1.4 °C 1025.3 hPa WSW 12.2 km/h 22.2 km/h 31% 0.0 mm CLR
13:45 18.9 °C 1.4 °C 1025.3 hPa WNW 12.2 km/h 13.0 km/h 31% 0.0 mm CLR
13:50 19.2 °C 1.7 °C 1025.0 hPa WNW 11.1 km/h 14.8 km/h 31% 0.0 mm CLR
13:55 19.2 °C 1.7 °C 1025.0 hPa West 11.3 km/h 25.7 km/h 31% 0.0 mm CLR
14:00 19.2 °C 1.7 °C 1025.0 hPa West 12.9 km/h 22.5 km/h 31% 0.0 mm CLR
14:05 19.4 °C 1.8 °C 1024.7 hPa WSW 12.9 km/h 22.5 km/h 31% 0.0 mm CLR
14:10 19.4 °C 2.3 °C 1024.7 hPa WNW 12.2 km/h 16.7 km/h 32% 0.0 mm CLR
14:15 19.4 °C 1.8 °C 1024.7 hPa West 12.2 km/h 13.0 km/h 31% 0.0 mm CLR
14:20 19.4 °C 1.8 °C 1024.4 hPa West 12.2 km/h 18.5 km/h 31% 0.0 mm CLR
14:25 19.4 °C 2.3 °C 1024.4 hPa WNW 12.2 km/h 14.8 km/h 32% 0.0 mm CLR
14:30 19.5 °C 2.3 °C 1024.4 hPa WSW 11.9 km/h 13.0 km/h 32% 0.0 mm CLR
14:35 19.7 °C 2.6 °C 1024.3 hPa WNW 11.9 km/h 22.5 km/h 32% 0.0 mm CLR
14:40 19.6 °C 2.0 °C 1024.3 hPa WNW 11.3 km/h 22.5 km/h 31% 0.0 mm CLR
14:45 19.7 °C 2.1 °C 1024.3 hPa West 10.3 km/h 18.5 km/h 31% 0.0 mm CLR
14:50 19.8 °C 2.2 °C 1024.0 hPa NW 9.5 km/h 13.0 km/h 31% 0.0 mm CLR
14:55 19.8 °C 2.2 °C 1024.0 hPa WNW 9.5 km/h 14.8 km/h 31% 0.0 mm CLR
15:00 19.9 °C 2.3 °C 1024.0 hPa WNW 9.7 km/h 24.1 km/h 31% 0.0 mm CLR
15:05 20.1 °C 2.4 °C 1023.8 hPa West 10.0 km/h 24.1 km/h 31% 0.0 mm CLR
15:10 20.1 °C 2.4 °C 1023.8 hPa WNW 12.2 km/h 18.5 km/h 31% 0.0 mm CLR
15:15 20.2 °C 2.5 °C 1023.8 hPa SW 12.2 km/h 13.0 km/h 31% 0.0 mm CLR
15:20 20.3 °C 2.6 °C 1023.5 hPa West 10.3 km/h 14.8 km/h 31% 0.0 mm CLR
15:25 20.4 °C 2.2 °C 1023.5 hPa SW 10.3 km/h 25.9 km/h 30% 0.0 mm CLR
15:30 20.4 °C 2.7 °C 1023.5 hPa WSW 13.0 km/h 16.7 km/h 31% 0.0 mm CLR
15:35 20.4 °C 2.7 °C 1023.3 hPa WNW 13.0 km/h 18.5 km/h 31% 0.0 mm CLR
15:40 20.6 °C 2.9 °C 1023.3 hPa West 12.2 km/h 22.2 km/h 31% 0.0 mm CLR
15:45 20.5 °C 2.3 °C 1023.3 hPa NW 12.2 km/h 16.7 km/h 30% 0.0 mm CLR
15:50 20.5 °C 2.8 °C 1023.2 hPa West 12.2 km/h 11.1 km/h 31% 0.0 mm CLR
15:55 20.4 °C 2.2 °C 1023.2 hPa NW 12.2 km/h 14.8 km/h 30% 0.0 mm CLR
16:00 20.4 °C 2.7 °C 1023.2 hPa West 11.3 km/h 22.5 km/h 31% 0.0 mm CLR
16:05 20.6 °C 2.4 °C 1023.2 hPa NW 11.9 km/h 24.1 km/h 30% 0.0 mm CLR
16:10 20.7 °C 2.5 °C 1023.2 hPa WNW 10.3 km/h 14.8 km/h 30% 0.0 mm CLR
16:15 20.8 °C 3.1 °C 1023.2 hPa WSW 10.3 km/h 11.1 km/h 31% 0.0 mm CLR
16:20 20.9 °C 2.7 °C 1023.2 hPa WNW 8.7 km/h 16.7 km/h 30% 0.0 mm CLR
16:25 20.9 °C 3.1 °C 1023.2 hPa West 8.7 km/h 13.7 km/h 31% 0.0 mm CLR
16:30 21.0 °C 2.7 °C 1023.2 hPa WSW 8.7 km/h 18.5 km/h 30% 0.0 mm CLR
16:35 20.9 °C 2.7 °C 1023.2 hPa SW 8.7 km/h 13.0 km/h 30% 0.0 mm CLR
16:40 21.0 °C 2.7 °C 1023.2 hPa West 11.1 km/h 13.0 km/h 30% 0.0 mm CLR
16:45 21.1 °C 2.8 °C 1023.2 hPa West 11.1 km/h 14.8 km/h 30% 0.0 mm CLR
16:50 21.2 °C 2.9 °C 1023.2 hPa West 7.6 km/h 9.3 km/h 30% 0.0 mm CLR
16:55 21.2 °C 2.9 °C 1023.2 hPa SW 7.6 km/h 8.4 km/h 30% 0.0 mm CLR
17:00 21.3 °C 3.0 °C 1023.2 hPa WSW 8.0 km/h 9.7 km/h 30% 0.0 mm CLR
17:05 21.4 °C 3.1 °C 1023.0 hPa SW 8.0 km/h 12.9 km/h 30% 0.0 mm CLR
17:10 21.4 °C 3.1 °C 1023.0 hPa WSW 6.4 km/h 9.5 km/h 30% 0.0 mm CLR
17:15 21.5 °C 3.2 °C 1023.0 hPa West 6.4 km/h 18.5 km/h 30% 0.0 mm CLR
17:20 21.3 °C 3.5 °C 1023.0 hPa WNW 8.4 km/h 11.9 km/h 31% 0.0 mm CLR
17:25 21.3 °C 3.5 °C 1023.0 hPa West 8.4 km/h 11.1 km/h 31% 0.0 mm CLR
17:30 21.3 °C 3.5 °C 1023.0 hPa WNW 8.4 km/h 13.0 km/h 31% 0.0 mm CLR
17:35 21.3 °C 3.5 °C 1022.9 hPa SW 8.4 km/h 14.8 km/h 31% 0.0 mm CLR
17:40 21.3 °C 3.5 °C 1022.9 hPa WSW 8.4 km/h 9.3 km/h 31% 0.0 mm CLR
17:45 21.3 °C 3.5 °C 1022.9 hPa SW 8.4 km/h 14.8 km/h 31% 0.0 mm CLR
17:50 21.3 °C 3.5 °C 1022.9 hPa WSW 6.9 km/h 7.4 km/h 31% 0.0 mm CLR
17:55 21.3 °C 3.5 °C 1022.9 hPa WNW 6.9 km/h 16.7 km/h 31% 0.0 mm CLR
18:00 21.2 °C 3.4 °C 1022.9 hPa West 8.0 km/h 14.5 km/h 31% 0.0 mm CLR
18:05 21.1 °C 3.3 °C 1022.9 hPa WNW 7.6 km/h 9.3 km/h 31% 0.0 mm CLR
18:10 20.9 °C 3.1 °C 1022.9 hPa WNW 6.4 km/h 11.1 km/h 31% 0.0 mm CLR
18:15 20.8 °C 3.5 °C 1022.9 hPa WNW 6.4 km/h 7.4 km/h 32% 0.0 mm CLR
18:20 20.8 °C 3.5 °C 1023.0 hPa WNW 5.8 km/h 11.1 km/h 32% 0.0 mm CLR
18:25 20.6 °C 3.3 °C 1023.0 hPa West 5.8 km/h 8.4 km/h 32% 0.0 mm CLR
18:30 20.4 °C 3.6 °C 1023.0 hPa West 5.0 km/h 5.6 km/h 33% 0.0 mm CLR
18:35 20.2 °C 3.4 °C 1023.2 hPa West 5.0 km/h 5.6 km/h 33% 0.0 mm CLR
18:40 19.9 °C 3.1 °C 1023.2 hPa West 3.9 km/h 7.4 km/h 33% 0.0 mm CLR
18:45 19.7 °C 2.9 °C 1023.2 hPa WSW 3.9 km/h 11.1 km/h 33% 0.0 mm CLR
18:50 19.1 °C 2.8 °C 1023.5 hPa SSW 6.9 km/h 16.7 km/h 34% 0.0 mm CLR
18:55 18.4 °C 2.7 °C 1023.5 hPa SW 6.9 km/h 14.8 km/h 35% 0.0 mm CLR
19:00 18.1 °C 2.8 °C 1023.5 hPa SW 9.7 km/h 16.1 km/h 36% 0.0 mm CLR
19:05 17.8 °C 2.5 °C 1023.5 hPa SW 10.0 km/h 13.0 km/h 36% 0.0 mm CLR
19:10 17.6 °C 2.7 °C 1023.5 hPa SW 8.4 km/h 11.1 km/h 37% 0.0 mm CLR
19:15 17.4 °C 2.6 °C 1023.5 hPa West 8.4 km/h 11.1 km/h 37% 0.0 mm CLR
19:20 17.2 °C 2.7 °C 1023.8 hPa WSW 7.6 km/h 11.1 km/h 38% 0.0 mm CLR
19:25 17.0 °C 2.6 °C 1023.8 hPa SW 7.6 km/h 11.1 km/h 38% 0.0 mm CLR
19:30 16.8 °C 2.4 °C 1023.8 hPa WSW 9.5 km/h 16.7 km/h 38% 0.0 mm CLR
19:35 16.6 °C 2.6 °C 1024.0 hPa SW 9.5 km/h 14.8 km/h 39% 0.0 mm CLR
19:40 16.5 °C 2.5 °C 1024.0 hPa SW 10.0 km/h 13.0 km/h 39% 0.0 mm CLR
19:45 16.4 °C 2.4 °C 1024.0 hPa SW 10.0 km/h 13.0 km/h 39% 0.0 mm CLR
19:50 16.4 °C 2.8 °C 1024.1 hPa West 9.5 km/h 9.3 km/h 40% 0.0 mm CLR
19:55 16.2 °C 2.9 °C 1024.1 hPa West 9.5 km/h 7.4 km/h 41% 0.0 mm CLR
20:00 16.1 °C 3.2 °C 1024.1 hPa WNW 4.8 km/h 8.0 km/h 42% 0.0 mm CLR
20:05 15.9 °C 3.3 °C 1024.3 hPa West 5.0 km/h 5.6 km/h 43% 0.0 mm CLR
20:10 15.7 °C 3.8 °C 1024.3 hPa West 2.9 km/h 7.4 km/h 45% 0.0 mm CLR
20:15 15.5 °C 3.9 °C 1024.3 hPa West 2.9 km/h 7.4 km/h 46% 0.0 mm CLR
20:20 15.3 °C 4.1 °C 1024.4 hPa WNW 5.0 km/h 10.0 km/h 47% 0.0 mm CLR
20:25 15.2 °C 4.3 °C 1024.4 hPa NW 5.0 km/h 5.6 km/h 48% 0.0 mm CLR
20:30 14.9 °C 4.3 °C 1024.4 hPa NNW 5.0 km/h 9.3 km/h 49% 0.0 mm CLR
20:35 14.7 °C 4.4 °C 1024.6 hPa North 5.0 km/h 5.6 km/h 50% 0.0 mm CLR
20:40 14.5 °C 5.0 °C 1024.6 hPa NNE 3.9 km/h 7.4 km/h 53% 0.0 mm CLR
20:45 14.3 °C 5.1 °C 1024.6 hPa ENE 3.9 km/h 5.6 km/h 54% 0.0 mm CLR
20:50 14.2 °C 5.0 °C 1024.7 hPa ENE 3.9 km/h 3.7 km/h 54% 0.0 mm CLR
20:55 14.2 °C 5.0 °C 1024.7 hPa ENE 3.9 km/h   54% 0.0 mm CLR
21:00 14.1 °C 4.9 °C 1024.7 hPa Calm   1.6 km/h 54% 0.0 mm CLR
21:05 14.0 °C 5.1 °C 1024.7 hPa Calm     55% 0.0 mm CLR
21:10 13.9 °C 5.3 °C 1024.7 hPa Calm   7.4 km/h 56% 0.0 mm CLR
21:15 13.8 °C 5.4 °C 1024.7 hPa Calm   3.7 km/h 57% 0.0 mm CLR
21:20 13.7 °C 5.3 °C 1024.8 hPa WNW 3.2 km/h   57% 0.0 mm CLR
21:25 13.7 °C 5.6 °C 1024.8 hPa WNW 3.2 km/h   58% 0.0 mm CLR
21:30 13.6 °C 5.5 °C 1024.8 hPa Calm   5.6 km/h 58% 0.0 mm CLR
21:35 13.6 °C 5.5 °C 1024.9 hPa Calm     58% 0.0 mm CLR
21:40 13.6 °C 5.2 °C 1024.9 hPa WNW 2.3 km/h 5.6 km/h 57% 0.0 mm CLR
21:45 13.4 °C 4.6 °C 1024.9 hPa West 2.3 km/h 5.8 km/h 55% 0.0 mm CLR
21:50 13.4 °C 4.6 °C 1025.0 hPa West 3.2 km/h 7.4 km/h 55% 0.0 mm CLR
21:55 13.3 °C 4.9 °C 1025.0 hPa West 3.2 km/h 3.9 km/h 57% 0.0 mm CLR
22:00 13.3 °C 5.2 °C 1025.0 hPa West 3.2 km/h 8.0 km/h 58% 0.0 mm CLR
22:05 13.1 °C 5.5 °C 1025.0 hPa West 3.2 km/h 3.7 km/h 60% 0.0 mm CLR
22:10 13.1 °C 5.7 °C 1025.0 hPa West 3.2 km/h 3.7 km/h 61% 0.0 mm CLR
22:15 13.1 °C 5.0 °C 1025.0 hPa West 3.2 km/h 3.7 km/h 58% 0.0 mm CLR
22:20 13.1 °C 4.5 °C 1025.0 hPa SW 2.9 km/h 7.4 km/h 56% 0.0 mm CLR
22:25 13.1 °C 4.3 °C 1025.0 hPa South 2.9 km/h 9.3 km/h 55% 0.0 mm CLR
22:30 13.1 °C 4.3 °C 1025.0 hPa SSW 5.8 km/h 11.1 km/h 55% 0.0 mm CLR
22:35 12.9 °C 4.3 °C 1025.0 hPa SW 5.8 km/h 13.0 km/h 56% 0.0 mm CLR
22:39 12.8 °C 4.2 °C 1025.0 hPa SSW 8.4 km/h 13.0 km/h 56% 0.0 mm CLR
22:45 12.7 °C 4.4 °C 1025.0 hPa SW 8.4 km/h 11.1 km/h 57% 0.0 mm CLR
22:50 12.5 °C 4.2 °C 1025.1 hPa SSW 6.4 km/h 7.4 km/h 57% 0.0 mm CLR
22:55 12.4 °C 4.3 °C 1025.1 hPa SSW 6.4 km/h 7.4 km/h 58% 0.0 mm CLR
23:00 12.3 °C 4.3 °C 1025.1 hPa SSW 4.8 km/h 9.7 km/h 58% 0.0 mm CLR
23:05 12.3 °C 4.3 °C 1025.1 hPa WSW 5.8 km/h 11.1 km/h 58% 0.0 mm CLR
23:10 12.3 °C 4.5 °C 1025.1 hPa SW 6.4 km/h 9.3 km/h 59% 0.0 mm CLR
23:15 12.2 °C 4.4 °C 1025.1 hPa WSW 6.4 km/h 9.5 km/h 59% 0.0 mm CLR
23:20 12.1 °C 4.3 °C 1025.2 hPa WSW 6.4 km/h 5.8 km/h 59% 0.0 mm CLR
23:25 12.1 °C 4.3 °C 1025.2 hPa WSW 6.4 km/h 7.4 km/h 59% 0.0 mm CLR
23:30 12.0 °C 4.2 °C 1025.2 hPa SW 5.0 km/h 9.3 km/h 59% 0.0 mm CLR
23:35 12.0 °C 4.4 °C 1025.2 hPa SSW 5.0 km/h 9.3 km/h 60% 0.0 mm CLR
23:40 11.9 °C 4.4 °C 1025.2 hPa SSW 6.4 km/h 11.1 km/h 60% 0.0 mm CLR
23:45 11.7 °C 4.4 °C 1025.2 hPa SSW 6.4 km/h 11.1 km/h 61% 0.0 mm CLR
23:50 11.7 °C 4.4 °C 1025.2 hPa SSW 8.7 km/h 14.8 km/h 61% 0.0 mm CLR
23:55 11.7 °C 4.4 °C 1025.2 hPa SW 8.7 km/h 9.5 km/h 61% 0.0 mm CLR
Murcia-Puente Tocinos, España
Compliments of Weather Underground - 2.5 mb

La estación de MeteoMurcia.com, publica sus datos en los siguientes proyectos:

Weather Underground PWS IMURCIAP2 Meteoclimatic www.awekas.at

W3Counter
Web Analytics